Time;durP1;ratioP1;P1;durP2;ratioP2;P2;SDS_P1;SDS_P2;PMS_P1;PMS_P2;Temp;Humidity;BMP_temperature;BMP_pressure;BME280_temperature;BME280_humidity;BME280_pressure;Samples;Min_cycle;Max_cycle;Signal;HPM_P1;HPM_P2
2020/12/21 01:47:22;;;;;;;24.88;17.67;;;7.20;99.90;;;;;;5008731;28;20235;-81
2020/12/21 01:49:55;;;;;;;27.10;17.90;;;7.10;99.90;;;;;;5009750;28;20675;-81
2020/12/21 01:52:22;;;;;;;20.92;17.27;;;7.10;99.90;;;;;;5009460;28;20226;-81
2020/12/21 01:54:52;;;;;;;21.35;17.38;;;7.10;99.90;;;;;;5010520;28;20213;-80
2020/12/21 01:59:47;;;;;;;22.73;16.83;;;7.20;99.90;;;;;;5003270;28;20215;-80
2020/12/21 02:02:14;;;;;;;21.90;16.42;;;7.20;99.90;;;;;;5008562;28;20266;-81
2020/12/21 02:04:41;;;;;;;22.27;18.42;;;7.20;99.90;;;;;;5013494;28;20237;-81
2020/12/21 02:07:08;;;;;;;21.85;17.38;;;7.20;99.90;;;;;;5012786;28;20265;-81
2020/12/21 02:09:35;;;;;;;21.45;17.20;;;7.20;99.90;;;;;;5012925;28;20305;-81
2020/12/21 02:12:01;;;;;;;23.63;18.15;;;7.30;99.90;;;;;;5013321;28;20230;-80
2020/12/21 02:14:29;;;;;;;24.83;18.55;;;7.20;99.90;;;;;;5011662;28;20202;-79
2020/12/21 02:16:55;;;;;;;26.58;18.75;;;7.30;99.90;;;;;;5001033;28;20685;-83
2020/12/21 02:19:22;;;;;;;22.85;17.77;;;7.30;99.90;;;;;;5011554;28;20236;-80
2020/12/21 02:21:49;;;;;;;22.65;18.10;;;7.40;99.90;;;;;;5011622;28;20230;-80
2020/12/21 02:24:15;;;;;;;23.38;16.80;;;7.40;99.90;;;;;;5012853;28;20202;-81
2020/12/21 02:26:42;;;;;;;19.50;15.65;;;7.30;99.90;;;;;;5003461;28;20226;-81
2020/12/21 02:29:09;;;;;;;21.73;16.75;;;7.20;99.90;;;;;;5011529;28;20226;-80
2020/12/21 02:31:36;;;;;;;22.48;16.20;;;7.20;99.90;;;;;;5001897;28;20217;-79
2020/12/21 02:34:03;;;;;;;24.20;17.40;;;7.20;99.90;;;;;;5005099;28;20246;-80
2020/12/21 02:36:29;;;;;;;22.65;17.10;;;7.20;99.90;;;;;;5007664;28;20269;-81
2020/12/21 02:38:56;;;;;;;23.15;17.70;;;7.20;99.90;;;;;;5000966;28;20267;-80
2020/12/21 02:41:23;;;;;;;25.27;17.63;;;7.20;99.90;;;;;;5011645;28;20218;-79
2020/12/21 02:43:49;;;;;;;25.25;18.83;;;7.20;99.90;;;;;;5009535;28;20257;-80
2020/12/21 02:46:17;;;;;;;24.02;18.20;;;7.20;99.90;;;;;;5010074;28;20250;-80
2020/12/21 02:48:43;;;;;;;23.85;18.20;;;7.20;99.90;;;;;;5010874;28;20230;-81
2020/12/21 02:51:10;;;;;;;31.20;20.75;;;7.30;99.90;;;;;;5012244;28;20305;-80
2020/12/21 02:53:37;;;;;;;27.27;20.00;;;7.30;99.90;;;;;;5011427;28;20215;-80
2020/12/21 02:56:05;;;;;;;24.83;17.35;;;7.30;99.90;;;;;;5010770;28;20215;-79
2020/12/21 02:58:31;;;;;;;25.30;20.10;;;7.30;99.90;;;;;;5004391;28;20277;-81
2020/12/21 03:00:57;;;;;;;26.02;19.95;;;7.30;99.90;;;;;;5014051;28;20234;-81
2020/12/21 03:03:24;;;;;;;25.45;18.40;;;7.30;99.90;;;;;;5014798;28;20214;-81
2020/12/21 03:05:50;;;;;;;27.65;19.25;;;7.30;99.90;;;;;;5014686;28;20258;-80
2020/12/21 03:08:17;;;;;;;23.38;18.88;;;7.20;99.90;;;;;;5014479;28;20226;-81
2020/12/21 03:10:43;;;;;;;24.77;18.00;;;7.20;99.90;;;;;;5015477;28;20191;-80
2020/12/21 03:13:10;;;;;;;25.13;19.05;;;7.30;99.90;;;;;;5016624;28;20206;-80
2020/12/21 03:15:37;;;;;;;24.58;18.83;;;7.20;99.90;;;;;;5015989;28;20217;-80
2020/12/21 03:18:03;;;;;;;26.88;19.88;;;7.30;99.90;;;;;;5014365;28;20214;-81
2020/12/21 03:20:31;;;;;;;22.40;18.73;;;7.40;99.90;;;;;;5014579;28;20198;-81
2020/12/21 03:22:57;;;;;;;26.50;20.92;;;7.30;99.90;;;;;;5016562;28;20199;-81
2020/12/21 03:25:23;;;;;;;26.20;21.27;;;7.30;99.90;;;;;;5016585;28;20187;-81
2020/12/21 03:27:50;;;;;;;32.13;22.98;;;7.10;99.90;;;;;;5015893;28;20214;-81
2020/12/21 03:30:17;;;;;;;35.90;22.95;;;6.90;99.90;;;;;;5013774;28;20292;-81
2020/12/21 03:32:44;;;;;;;34.20;20.05;;;6.90;99.90;;;;;;5012910;28;20209;-81
2020/12/21 03:35:10;;;;;;;33.97;21.73;;;6.80;99.90;;;;;;5009493;28;20268;-81
2020/12/21 03:37:37;;;;;;;26.02;19.98;;;6.70;99.90;;;;;;5007687;28;20581;-81
2020/12/21 03:40:05;;;;;;;29.77;20.17;;;6.70;99.90;;;;;;5011140;28;20232;-81
2020/12/21 03:42:32;;;;;;;28.60;20.33;;;6.70;99.90;;;;;;5013344;28;20269;-80
2020/12/21 03:44:58;;;;;;;27.90;19.40;;;6.70;99.90;;;;;;5016138;28;20269;-79
2020/12/21 03:47:26;;;;;;;31.67;20.02;;;6.70;99.90;;;;;;5015894;28;20245;-81
2020/12/21 03:49:52;;;;;;;25.88;19.25;;;6.70;99.90;;;;;;5015879;28;20233;-80
2020/12/21 03:52:19;;;;;;;25.52;18.85;;;6.80;99.90;;;;;;5019445;28;20202;-79
2020/12/21 03:54:46;;;;;;;24.90;18.25;;;6.80;99.90;;;;;;5020448;28;20205;-80
2020/12/21 03:57:12;;;;;;;27.15;19.02;;;6.80;99.90;;;;;;5020158;28;20222;-80
2020/12/21 03:59:38;;;;;;;28.55;19.80;;;6.90;99.90;;;;;;5020272;28;20219;-80
2020/12/21 04:02:05;;;;;;;24.23;18.38;;;6.90;99.90;;;;;;5020176;28;20193;-80
2020/12/21 04:04:32;;;;;;;26.27;19.83;;;6.90;99.90;;;;;;5015170;28;20715;-81
2020/12/21 04:06:58;;;;;;;26.80;19.55;;;7.00;99.90;;;;;;5013673;28;20238;-81
2020/12/21 04:09:25;;;;;;;23.88;17.88;;;6.90;99.90;;;;;;5016267;28;20226;-81
2020/12/21 04:11:52;;;;;;;22.48;17.27;;;6.90;99.90;;;;;;5018797;28;20237;-81
2020/12/21 04:14:18;;;;;;;20.33;17.23;;;6.90;99.90;;;;;;5018331;28;20190;-81
2020/12/21 04:16:44;;;;;;;19.10;16.38;;;6.80;99.90;;;;;;5017502;28;20221;-81
2020/12/21 04:19:11;;;;;;;22.33;16.38;;;6.80;99.90;;;;;;5017663;28;20224;-80
2020/12/21 04:21:38;;;;;;;21.50;16.08;;;6.90;99.90;;;;;;5019929;28;20230;-81
2020/12/21 04:24:05;;;;;;;18.58;15.70;;;6.80;99.90;;;;;;5019746;28;20195;-79
2020/12/21 04:26:31;;;;;;;18.25;14.80;;;6.80;99.90;;;;;;5018589;28;20321;-78
2020/12/21 04:28:57;;;;;;;19.10;14.98;;;6.90;99.90;;;;;;5014523;28;20230;-81
2020/12/21 04:31:24;;;;;;;18.75;14.52;;;6.90;99.90;;;;;;5012496;28;20207;-80
2020/12/21 04:33:50;;;;;;;18.25;14.45;;;6.80;99.90;;;;;;5018175;28;20199;-80
2020/12/21 04:36:17;;;;;;;20.52;15.65;;;6.80;99.90;;;;;;5018526;28;20245;-81
2020/12/21 04:38:45;;;;;;;18.10;14.25;;;6.80;99.90;;;;;;5009865;28;20235;-81
2020/12/21 04:41:12;;;;;;;19.08;15.30;;;6.90;99.90;;;;;;5003257;28;20234;-80
2020/12/21 04:43:39;;;;;;;16.40;14.23;;;6.90;99.90;;;;;;5004315;28;20211;-80
2020/12/21 04:46:07;;;;;;;17.88;15.13;;;6.90;99.90;;;;;;5004645;28;20291;-81
2020/12/21 04:48:38;;;;;;;17.30;14.82;;;6.80;99.90;;;;;;5006861;28;20230;-81
2020/12/21 04:51:06;;;;;;;19.13;16.15;;;6.70;99.90;;;;;;5009291;28;20213;-79
2020/12/21 04:53:32;;;;;;;16.75;13.93;;;6.70;99.90;;;;;;5012274;28;20202;-81
2020/12/21 04:56:01;;;;;;;16.65;14.60;;;6.60;99.90;;;;;;5008589;28;20226;-81
2020/12/21 04:58:27;;;;;;;17.45;13.15;;;6.60;99.90;;;;;;5012597;28;20264;-81
2020/12/21 05:00:54;;;;;;;18.90;13.85;;;6.50;99.90;;;;;;5013273;28;20265;-81
2020/12/21 05:03:20;;;;;;;14.55;11.32;;;6.50;99.90;;;;;;5014088;28;20211;-81
2020/12/21 05:05:47;;;;;;;20.50;13.73;;;6.60;99.90;;;;;;5014372;28;20697;-81
2020/12/21 05:08:14;;;;;;;15.45;10.55;;;6.50;99.90;;;;;;5013712;28;20265;-80
2020/12/21 05:10:42;;;;;;;15.65;10.88;;;6.60;99.90;;;;;;5012798;28;20246;-81
2020/12/21 05:13:10;;;;;;;14.27;11.45;;;6.50;99.90;;;;;;5011546;28;20237;-80
2020/12/21 05:15:37;;;;;;;12.75;10.27;;;6.50;99.90;;;;;;5006656;28;20256;-82
2020/12/21 05:18:09;;;;;;;12.07;10.65;;;6.50;99.90;;;;;;5001765;28;20261;-81
2020/12/21 05:20:37;;;;;;;13.25;10.10;;;6.50;99.90;;;;;;5005047;28;20178;-81
2020/12/21 05:23:06;;;;;;;11.80;9.43;;;6.50;99.90;;;;;;5015025;28;20210;-81
2020/12/21 05:25:32;;;;;;;9.40;8.40;;;6.50;99.90;;;;;;5009097;28;20217;-80
2020/12/21 05:28:11;;;;;;;10.30;8.93;;;6.40;99.90;;;;;;5008097;28;20726;-81
2020/12/21 05:30:50;;;;;;;13.20;10.10;;;6.40;99.90;;;;;;5015716;28;20213;-80
2020/12/21 05:33:17;;;;;;;11.02;9.32;;;6.30;99.90;;;;;;5015476;28;20217;-81
2020/12/21 05:35:43;;;;;;;9.45;8.48;;;6.10;99.90;;;;;;5015563;28;20194;-80
2020/12/21 05:38:19;;;;;;;13.75;11.68;;;6.10;99.90;;;;;;5015310;28;20284;-79
2020/12/21 05:40:46;;;;;;;12.52;10.70;;;6.00;99.90;;;;;;5014010;28;20219;-80
2020/12/21 05:43:26;;;;;;;13.77;9.60;;;5.90;99.90;;;;;;5008435;28;20232;-82
2020/12/21 05:46:10;;;;;;;13.02;9.70;;;5.90;99.90;;;;;;5008912;28;20261;-80
2020/12/21 05:48:40;;;;;;;13.75;11.95;;;5.80;99.90;;;;;;5004893;28;20712;-80
2020/12/21 05:51:08;;;;;;;14.85;10.80;;;5.80;99.90;;;;;;4998990;28;20272;-80
2020/12/21 05:53:38;;;;;;;13.75;11.45;;;5.70;99.90;;;;;;4998834;28;20245;-81
2020/12/21 05:56:05;;;;;;;13.32;11.88;;;5.70;99.90;;;;;;5009119;28;20210;-80
2020/12/21 05:58:34;;;;;;;12.40;10.13;;;5.60;99.90;;;;;;5015825;28;20232;-81
2020/12/21 06:01:06;;;;;;;12.80;10.38;;;5.50;99.90;;;;;;5005143;28;20213;-82
2020/12/21 06:03:41;;;;;;;10.50;8.30;;;5.50;99.90;;;;;;4998874;28;20229;-81
2020/12/21 06:06:09;;;;;;;10.55;8.25;;;5.40;99.90;;;;;;5001326;28;20291;-81
2020/12/21 06:08:36;;;;;;;14.00;9.30;;;5.50;99.90;;;;;;5014611;28;20289;-80
2020/12/21 06:11:17;;;;;;;10.15;9.05;;;5.50;99.90;;;;;;5009815;28;20681;-80
2020/12/21 06:13:55;;;;;;;11.77;10.32;;;5.50;99.90;;;;;;4999694;28;20270;-81
2020/12/21 06:16:23;;;;;;;11.32;10.13;;;5.40;99.90;;;;;;5007106;28;20210;-81
2020/12/21 06:19:04;;;;;;;12.90;10.73;;;5.50;99.90;;;;;;5008738;28;20242;-80
2020/12/21 06:21:32;;;;;;;11.50;9.55;;;5.50;99.90;;;;;;5013856;28;20259;-81
2020/12/21 06:23:59;;;;;;;11.85;10.40;;;5.40;99.90;;;;;;5013111;28;20247;-79
2020/12/21 06:26:36;;;;;;;11.85;10.00;;;5.50;99.90;;;;;;5010308;28;20272;-80
2020/12/21 06:29:07;;;;;;;13.25;10.75;;;5.50;99.90;;;;;;5002425;28;20225;-80
2020/12/21 06:31:39;;;;;;;11.32;10.13;;;5.50;99.90;;;;;;5004319;28;20236;-80
2020/12/21 06:34:05;;;;;;;11.40;10.13;;;5.50;99.90;;;;;;5005183;28;20217;-80
2020/12/21 06:36:33;;;;;;;11.27;8.82;;;5.50;99.90;;;;;;5014389;28;20224;-81
2020/12/21 06:39:00;;;;;;;10.95;8.23;;;5.60;99.90;;;;;;5012741;28;20252;-80
2020/12/21 06:41:27;;;;;;;10.63;8.60;;;5.60;99.90;;;;;;5003032;28;20236;-82
2020/12/21 06:43:59;;;;;;;10.98;8.10;;;5.70;99.90;;;;;;5002529;28;20213;-81
2020/12/21 06:46:27;;;;;;;8.80;7.90;;;5.70;99.90;;;;;;4998367;28;20224;-80
2020/12/21 06:49:08;;;;;;;7.45;6.65;;;5.70;99.90;;;;;;4997627;28;20264;-80
2020/12/21 06:51:35;;;;;;;9.20;6.85;;;5.70;99.90;;;;;;4999419;28;20236;-80
2020/12/21 06:54:03;;;;;;;9.18;6.93;;;5.70;99.90;;;;;;4997750;28;20236;-80
2020/12/21 06:56:30;;;;;;;9.05;6.88;;;5.70;99.90;;;;;;4997355;28;20201;-81
2020/12/21 06:58:58;;;;;;;8.23;6.88;;;5.70;99.90;;;;;;5001561;28;20256;-81
2020/12/21 07:01:27;;;;;;;9.75;7.15;;;5.70;99.90;;;;;;5004358;28;20211;-81
2020/12/21 07:03:54;;;;;;;7.45;6.40;;;5.60;99.90;;;;;;5002202;28;20217;-82
2020/12/21 07:06:21;;;;;;;8.25;7.38;;;5.60;99.90;;;;;;5004762;28;20272;-82
2020/12/21 07:08:49;;;;;;;12.13;7.90;;;5.60;99.90;;;;;;5001798;28;20240;-82
2020/12/21 07:11:20;;;;;;;7.80;7.00;;;5.60;99.90;;;;;;5000241;28;20215;-80
2020/12/21 07:13:49;;;;;;;9.50;6.90;;;5.60;99.90;;;;;;4998731;28;20299;-80
2020/12/21 07:16:17;;;;;;;7.20;6.28;;;5.60;99.90;;;;;;4997489;28;20280;-80
2020/12/21 07:18:46;;;;;;;6.80;6.10;;;5.60;99.90;;;;;;4999666;28;20634;-80
2020/12/21 07:21:13;;;;;;;8.20;6.53;;;5.60;99.90;;;;;;5008512;28;20264;-80
2020/12/21 07:23:41;;;;;;;7.32;6.28;;;5.60;99.90;;;;;;5005956;28;20212;-80
2020/12/21 07:26:08;;;;;;;9.45;6.90;;;5.60;99.90;;;;;;5004209;28;20221;-80
2020/12/21 07:28:35;;;;;;;6.85;6.15;;;5.60;99.90;;;;;;4998560;28;20322;-81
2020/12/21 07:31:06;;;;;;;7.32;5.72;;;5.60;99.90;;;;;;4999040;28;20642;-81
2020/12/21 07:33:33;;;;;;;7.78;6.05;;;5.60;99.90;;;;;;4998437;28;20312;-81
2020/12/21 07:36:01;;;;;;;6.85;5.63;;;5.60;99.90;;;;;;4999238;28;20214;-81
2020/12/21 07:38:28;;;;;;;9.55;6.05;;;5.70;99.90;;;;;;4998974;28;20233;-81
2020/12/21 07:40:55;;;;;;;6.72;6.03;;;5.70;99.90;;;;;;4998347;28;20578;-80
2020/12/21 07:43:30;;;;;;;12.13;7.25;;;5.70;99.90;;;;;;4997832;28;20654;-81
2020/12/21 07:46:04;;;;;;;6.90;5.70;;;5.70;99.90;;;;;;4998969;28;20240;-81
2020/12/21 07:48:33;;;;;;;7.68;6.03;;;5.80;99.90;;;;;;4999507;28;20225;-81
2020/12/21 07:51:04;;;;;;;6.82;5.20;;;5.90;99.90;;;;;;4999241;28;20230;-80
2020/12/21 07:53:36;;;;;;;7.03;6.32;;;5.90;99.90;;;;;;5000759;28;20342;-80
2020/12/21 07:56:02;;;;;;;7.38;5.30;;;5.90;99.90;;;;;;5001014;28;20383;-80
2020/12/21 07:58:34;;;;;;;9.05;5.82;;;5.80;99.90;;;;;;5008269;28;20402;-81
2020/12/21 08:01:00;;;;;;;6.25;5.65;;;5.70;99.90;;;;;;5014928;28;20221;-85
2020/12/21 08:03:29;;;;;;;6.20;5.47;;;5.80;99.90;;;;;;5012511;28;20220;-82
2020/12/21 08:06:07;;;;;;;7.50;5.70;;;5.90;99.90;;;;;;5011173;28;20214;-81
2020/12/21 08:08:38;;;;;;;5.70;5.10;;;6.00;99.90;;;;;;5009350;28;20221;-82
2020/12/21 08:11:06;;;;;;;6.00;5.40;;;5.90;99.90;;;;;;5008304;28;20224;-80
2020/12/21 08:13:35;;;;;;;5.55;4.90;;;5.80;99.90;;;;;;5010768;28;20213;-81
2020/12/21 08:16:05;;;;;;;10.40;6.38;;;6.00;99.90;;;;;;5007412;28;20210;-81
2020/12/21 08:18:32;;;;;;;5.93;5.32;;;6.00;99.90;;;;;;5013883;28;20214;-82
2020/12/21 08:20:58;;;;;;;7.97;6.07;;;6.00;99.90;;;;;;5014476;28;20210;-83
2020/12/21 08:23:27;;;;;;;8.40;5.10;;;6.20;99.90;;;;;;5014505;28;20201;-84
2020/12/21 08:25:54;;;;;;;5.90;5.30;;;6.20;99.90;;;;;;5011047;28;20212;-83
2020/12/21 08:28:32;;;;;;;6.10;5.40;;;6.20;99.90;;;;;;5004366;28;20249;-81
2020/12/21 08:31:13;;;;;;;9.25;5.70;;;6.40;99.90;;;;;;5013130;28;20195;-83
2020/12/21 08:33:42;;;;;;;6.15;5.15;;;6.50;99.90;;;;;;5015432;28;20221;-81
2020/12/21 08:36:17;;;;;;;6.85;5.25;;;6.60;99.90;;;;;;5015328;28;20222;-81
2020/12/21 08:38:45;;;;;;;6.80;5.30;;;6.70;99.90;;;;;;5013047;28;20797;-80
2020/12/21 08:41:12;;;;;;;8.35;5.50;;;6.80;99.90;;;;;;5002916;28;20302;-80
2020/12/21 08:43:39;;;;;;;6.93;6.10;;;6.90;99.90;;;;;;5005909;28;20256;-79
2020/12/21 08:46:10;;;;;;;6.43;5.70;;;6.90;99.90;;;;;;5011946;28;20289;-81
2020/12/21 08:48:38;;;;;;;5.30;4.72;;;7.00;99.90;;;;;;5012308;28;20318;-81
2020/12/21 08:51:04;;;;;;;9.38;5.90;;;7.00;99.90;;;;;;5013619;28;20205;-81
2020/12/21 08:53:31;;;;;;;6.72;5.72;;;7.00;99.90;;;;;;5010872;28;20687;-81
2020/12/21 08:55:58;;;;;;;6.70;5.88;;;7.10;99.90;;;;;;5009755;28;20214;-80
2020/12/21 08:58:24;;;;;;;6.13;5.53;;;7.10;99.90;;;;;;5014143;28;20249;-81
2020/12/21 09:00:51;;;;;;;6.93;6.20;;;7.20;99.90;;;;;;5013529;28;20219;-81
2020/12/21 09:03:17;;;;;;;6.95;5.82;;;7.20;99.90;;;;;;5001536;28;20236;-79
2020/12/21 09:05:44;;;;;;;8.55;6.28;;;7.20;99.90;;;;;;5011827;28;20202;-81
2020/12/21 09:08:10;;;;;;;6.82;6.15;;;7.30;99.90;;;;;;5008972;28;20717;-81
2020/12/21 09:10:37;;;;;;;8.18;5.75;;;7.40;99.90;;;;;;5009027;28;20238;-80
2020/12/21 09:13:04;;;;;;;7.43;5.70;;;7.40;99.90;;;;;;5006464;28;20210;-81
2020/12/21 09:15:30;;;;;;;8.05;6.28;;;7.50;99.90;;;;;;5000208;28;20215;-81
2020/12/21 09:17:57;;;;;;;5.55;4.50;;;7.50;99.80;;;;;;5004380;28;20256;-81
2020/12/21 09:20:23;;;;;;;5.80;5.20;;;7.60;99.40;;;;;;5004225;28;20745;-81
2020/12/21 09:22:50;;;;;;;7.80;5.22;;;7.70;98.60;;;;;;5005766;28;20213;-80
2020/12/21 09:25:16;;;;;;;5.68;5.07;;;7.70;98.00;;;;;;5008564;28;20226;-82
2020/12/21 09:27:44;;;;;;;8.00;5.82;;;7.80;98.00;;;;;;5003357;28;20234;-81
2020/12/21 09:30:11;;;;;;;6.00;5.20;;;7.80;97.10;;;;;;5004800;28;20232;-81
2020/12/21 09:32:37;;;;;;;11.43;5.20;;;7.80;97.00;;;;;;5015015;28;20218;-80
2020/12/21 09:35:04;;;;;;;14.25;5.68;;;7.80;96.20;;;;;;5011215;28;20228;-80
2020/12/21 09:37:31;;;;;;;6.65;5.75;;;7.80;95.80;;;;;;5008652;28;20242;-81
2020/12/21 09:39:57;;;;;;;8.35;6.75;;;7.50;95.40;;;;;;5005179;28;20201;-81
2020/12/21 09:42:24;;;;;;;7.07;5.30;;;7.30;96.50;;;;;;5001079;28;20272;-80
2020/12/21 09:44:51;;;;;;;6.50;5.90;;;7.40;97.50;;;;;;5002273;28;20743;-80
2020/12/21 09:47:18;;;;;;;7.00;5.80;;;7.60;97.30;;;;;;5000581;28;20269;-82
2020/12/21 09:49:45;;;;;;;7.05;6.35;;;7.60;97.70;;;;;;5007657;28;20650;-81
2020/12/21 09:52:11;;;;;;;9.95;6.50;;;7.70;97.70;;;;;;5002491;28;20248;-81
2020/12/21 09:54:38;;;;;;;7.40;6.50;;;7.90;97.60;;;;;;5007596;28;20242;-80
2020/12/21 09:57:06;;;;;;;7.65;5.50;;;8.00;97.10;;;;;;4999848;28;20226;-80
2020/12/21 09:59:33;;;;;;;7.65;5.85;;;8.10;96.00;;;;;;5000086;28;20236;-81
2020/12/21 10:01:59;;;;;;;9.68;5.90;;;8.10;95.60;;;;;;5000306;28;20278;-79
2020/12/21 10:04:26;;;;;;;8.55;6.15;;;8.10;94.90;;;;;;5002646;28;20244;-81
2020/12/21 10:06:53;;;;;;;6.50;5.30;;;8.20;94.60;;;;;;5003531;28;20228;-82
2020/12/21 10:09:19;;;;;;;6.40;5.80;;;8.20;94.10;;;;;;5006136;28;20229;-81
2020/12/21 10:11:46;;;;;;;7.45;5.60;;;8.20;93.50;;;;;;5001709;28;20225;-80
2020/12/21 10:14:12;;;;;;;7.82;5.47;;;8.20;93.30;;;;;;4999532;28;20574;-81
2020/12/21 10:16:39;;;;;;;6.90;5.43;;;8.30;93.00;;;;;;5006863;28;20206;-81
2020/12/21 10:19:06;;;;;;;11.35;5.97;;;8.30;92.70;;;;;;5006859;28;20297;-81
2020/12/21 10:21:33;;;;;;;6.60;5.75;;;8.30;92.60;;;;;;5007244;28;20221;-81
2020/12/21 10:23:59;;;;;;;6.53;5.65;;;8.20;92.40;;;;;;5006344;28;20240;-81
2020/12/21 10:26:26;;;;;;;10.43;6.20;;;8.10;92.60;;;;;;5003173;28;20717;-82
2020/12/21 10:28:52;;;;;;;7.43;5.05;;;8.10;92.60;;;;;;5010894;28;20223;-81
2020/12/21 10:31:19;;;;;;;7.93;5.25;;;8.00;92.80;;;;;;5012855;28;20206;-81
2020/12/21 10:33:45;;;;;;;8.23;4.95;;;8.10;93.00;;;;;;5011768;28;20214;-81
2020/12/21 10:36:15;;;;;;;6.38;5.07;;;8.10;93.10;;;;;;5011338;28;20341;-82
2020/12/21 10:38:42;;;;;;;9.40;5.45;;;8.20;93.40;;;;;;5006554;28;20223;-83
2020/12/21 10:41:09;;;;;;;5.82;4.60;;;8.30;93.40;;;;;;5003835;28;20237;-81
2020/12/21 10:43:41;;;;;;;4.93;4.15;;;8.30;93.10;;;;;;4998737;28;20208;-81
2020/12/21 10:46:07;;;;;;;4.25;3.85;;;8.30;92.70;;;;;;4998695;28;20634;-81
2020/12/21 10:48:34;;;;;;;4.75;4.25;;;8.40;92.40;;;;;;5004285;28;20223;-81
2020/12/21 10:51:00;;;;;;;6.63;4.25;;;8.40;91.90;;;;;;5007156;28;20632;-82
2020/12/21 10:53:27;;;;;;;6.93;4.38;;;8.60;91.20;;;;;;5006073;28;20221;-81
2020/12/21 10:55:54;;;;;;;4.82;4.07;;;8.60;91.00;;;;;;5005847;28;20217;-81
2020/12/21 10:58:20;;;;;;;5.82;4.25;;;8.50;90.90;;;;;;5005430;28;20589;-81
2020/12/21 11:00:47;;;;;;;7.13;4.10;;;8.60;91.20;;;;;;5005430;28;20210;-81
2020/12/21 11:03:13;;;;;;;7.10;4.40;;;8.70;91.20;;;;;;5007335;28;20215;-81
2020/12/21 11:05:40;;;;;;;4.80;3.70;;;8.80;90.90;;;;;;5007133;28;20283;-80
2020/12/21 11:08:08;;;;;;;5.55;4.05;;;8.80;90.60;;;;;;5007982;28;20227;-81
2020/12/21 11:10:34;;;;;;;6.07;4.53;;;8.70;90.40;;;;;;5009188;28;20207;-80
2020/12/21 11:13:02;;;;;;;5.13;4.47;;;8.70;90.50;;;;;;5006848;28;20235;-81
2020/12/21 11:15:28;;;;;;;8.35;4.78;;;8.80;90.40;;;;;;5007294;28;20206;-81
2020/12/21 11:17:54;;;;;;;6.90;5.50;;;8.80;90.30;;;;;;5006756;28;20239;-81
2020/12/21 11:20:21;;;;;;;7.65;6.78;;;8.80;90.70;;;;;;5007398;28;20211;-81
2020/12/21 11:22:47;;;;;;;9.88;8.07;;;8.70;90.80;;;;;;5005780;28;20207;-81
2020/12/21 11:25:14;;;;;;;10.95;9.85;;;8.60;91.20;;;;;;5006695;28;20679;-81
2020/12/21 11:27:40;;;;;;;9.73;8.82;;;8.70;91.70;;;;;;5006983;28;20334;-82
2020/12/21 11:30:08;;;;;;;6.30;5.68;;;8.80;92.20;;;;;;5011346;28;20195;-81
2020/12/21 11:32:37;;;;;;;7.18;5.80;;;8.90;92.30;;;;;;5013803;28;20219;-81
2020/12/21 11:35:03;;;;;;;8.30;6.45;;;9.00;92.40;;;;;;5011876;28;20274;-81
2020/12/21 11:37:30;;;;;;;8.43;6.60;;;9.20;92.10;;;;;;5009498;28;20211;-82
2020/12/21 11:39:57;;;;;;;7.40;6.60;;;9.30;91.50;;;;;;5015238;28;20197;-80
2020/12/21 11:42:23;;;;;;;7.28;5.88;;;9.50;91.50;;;;;;5014220;28;20213;-81
2020/12/21 11:44:50;;;;;;;7.05;5.38;;;9.70;90.70;;;;;;5006215;28;20222;-81
2020/12/21 11:47:17;;;;;;;7.03;6.13;;;9.70;90.00;;;;;;5004131;28;20236;-82
2020/12/21 11:49:43;;;;;;;7.97;5.80;;;9.90;89.00;;;;;;5003726;28;20221;-81
2020/12/21 11:52:10;;;;;;;6.35;5.75;;;9.80;87.70;;;;;;5004969;28;20690;-81
2020/12/21 11:54:36;;;;;;;9.25;6.15;;;9.80;87.70;;;;;;5004751;28;20211;-80
2020/12/21 11:57:03;;;;;;;9.70;6.00;;;9.70;87.00;;;;;;5007076;28;20395;-82
2020/12/21 11:59:30;;;;;;;6.43;5.80;;;9.80;85.50;;;;;;5010703;28;20238;-81
2020/12/21 12:01:58;;;;;;;8.02;6.18;;;9.70;85.60;;;;;;5010800;28;20722;-80
2020/12/21 12:04:25;;;;;;;7.53;6.25;;;9.60;86.80;;;;;;5011006;28;20269;-82
2020/12/21 12:06:53;;;;;;;6.88;6.10;;;9.60;87.10;;;;;;5005924;28;20246;-81
2020/12/21 12:09:21;;;;;;;8.15;5.93;;;9.60;86.60;;;;;;5003581;28;20230;-81
2020/12/21 12:11:48;;;;;;;10.00;5.88;;;9.50;87.60;;;;;;5000195;28;20216;-82
2020/12/21 12:14:14;;;;;;;7.97;6.05;;;9.50;87.40;;;;;;5002962;28;20224;-80
2020/12/21 12:16:41;;;;;;;9.45;6.07;;;9.50;86.90;;;;;;5003661;28;20238;-81
2020/12/21 12:19:07;;;;;;;9.68;6.20;;;9.60;86.40;;;;;;5002199;28;20231;-81
2020/12/21 12:21:34;;;;;;;6.35;5.75;;;9.60;86.50;;;;;;5002543;28;20768;-81
2020/12/21 12:24:01;;;;;;;8.77;6.38;;;9.60;87.30;;;;;;5002740;28;20215;-82
2020/12/21 12:26:27;;;;;;;8.27;6.03;;;9.70;86.30;;;;;;5007502;28;20215;-79
2020/12/21 12:28:54;;;;;;;8.10;6.20;;;9.40;85.60;;;;;;5013749;28;20238;-80
2020/12/21 12:31:21;;;;;;;9.57;5.70;;;9.20;90.20;;;;;;5010563;28;20208;-83
2020/12/21 12:33:49;;;;;;;7.65;6.60;;;9.40;90.70;;;;;;5008772;28;20307;-82
2020/12/21 12:36:19;;;;;;;11.57;6.30;;;9.70;90.20;;;;;;5009199;28;20229;-80
2020/12/21 12:38:46;;;;;;;10.07;5.60;;;10.00;87.60;;;;;;5008868;28;20234;-80
2020/12/21 12:41:13;;;;;;;8.27;5.55;;;10.20;84.20;;;;;;5009328;28;20248;-81
2020/12/21 12:43:39;;;;;;;8.45;5.65;;;10.50;80.90;;;;;;5009776;28;20238;-82
2020/12/21 12:46:09;;;;;;;6.72;5.70;;;10.60;78.30;;;;;;5005258;28;20209;-82
2020/12/21 12:48:36;;;;;;;7.28;5.88;;;10.60;76.80;;;;;;5007243;28;20264;-81
2020/12/21 12:51:04;;;;;;;7.03;4.90;;;10.50;76.00;;;;;;5004743;28;20245;-80
2020/12/21 12:53:31;;;;;;;8.82;5.28;;;10.30;76.60;;;;;;5003828;28;20695;-80
2020/12/21 12:55:58;;;;;;;12.10;7.35;;;10.20;78.40;;;;;;5001722;28;20278;-82
2020/12/21 12:58:25;;;;;;;7.60;6.60;;;10.00;80.60;;;;;;5005804;28;20237;-81
2020/12/21 13:00:52;;;;;;;11.07;6.55;;;9.70;83.00;;;;;;5011169;28;20257;-86
2020/12/21 13:03:18;;;;;;;12.38;7.50;;;9.70;85.40;;;;;;5016737;28;20548;-82
2020/12/21 13:05:45;;;;;;;9.25;7.00;;;9.70;86.90;;;;;;5014829;28;20209;-81
2020/12/21 13:08:15;;;;;;;9.40;6.07;;;9.70;87.60;;;;;;5009628;28;20251;-82
2020/12/21 13:10:41;;;;;;;8.85;6.25;;;9.70;89.00;;;;;;5013774;28;20210;-80
2020/12/21 13:13:09;;;;;;;9.40;7.00;;;9.80;88.70;;;;;;5011899;28;20220;-81
2020/12/21 13:15:35;;;;;;;7.93;6.43;;;9.80;89.20;;;;;;5009562;28;20266;-81
2020/12/21 13:18:02;;;;;;;9.75;7.68;;;9.90;89.70;;;;;;5006481;28;20226;-81
2020/12/21 13:20:29;;;;;;;10.45;8.32;;;9.80;89.40;;;;;;5006159;28;20269;-79
2020/12/21 13:22:55;;;;;;;7.80;5.90;;;9.80;90.20;;;;;;5010917;28;20204;-82
2020/12/21 13:25:22;;;;;;;8.02;6.10;;;9.70;89.70;;;;;;5017541;28;20221;-83
2020/12/21 13:27:48;;;;;;;12.32;6.43;;;9.80;90.20;;;;;;5017005;28;20265;-82
2020/12/21 13:30:18;;;;;;;8.40;5.95;;;9.90;90.10;;;;;;5014008;28;20538;-81
2020/12/21 13:32:45;;;;;;;9.90;6.32;;;10.10;88.90;;;;;;5015801;28;20275;-81
2020/12/21 13:35:11;;;;;;;7.38;5.70;;;10.20;87.70;;;;;;5017877;28;20203;-81
2020/12/21 13:37:38;;;;;;;9.27;5.90;;;10.10;86.80;;;;;;5017766;28;20224;-82
2020/12/21 13:40:05;;;;;;;6.70;5.80;;;10.10;84.80;;;;;;5017312;28;20207;-82
2020/12/21 13:42:31;;;;;;;7.35;5.38;;;10.40;85.00;;;;;;5015314;28;20224;-81
2020/12/21 13:44:58;;;;;;;11.55;7.40;;;10.60;85.20;;;;;;5014076;28;20653;-81
2020/12/21 13:47:26;;;;;;;8.13;6.35;;;10.70;83.20;;;;;;5013829;28;20251;-81
2020/12/21 13:49:53;;;;;;;6.97;6.15;;;10.70;81.40;;;;;;5010115;28;20255;-79
2020/12/21 13:52:19;;;;;;;9.00;6.35;;;10.80;80.70;;;;;;5008322;28;20273;-81
2020/12/21 13:54:46;;;;;;;6.13;5.40;;;11.00;80.40;;;;;;5004175;28;20297;-81
2020/12/21 13:57:12;;;;;;;5.90;5.35;;;10.80;79.20;;;;;;5008658;28;20209;-82
2020/12/21 13:59:39;;;;;;;6.82;5.30;;;10.90;79.40;;;;;;5045577;23;20233;-81
2020/12/21 14:02:06;;;;;;;8.13;5.80;;;11.00;78.10;;;;;;5032281;28;20213;-80
2020/12/21 14:04:37;;;;;;;8.45;5.47;;;11.00;78.20;;;;;;5034545;28;20210;-80
2020/12/21 14:07:03;;;;;;;9.20;5.32;;;11.00;77.20;;;;;;5034770;28;20208;-81
2020/12/21 14:09:30;;;;;;;5.40;4.90;;;11.00;77.20;;;;;;5035861;28;20217;-80
2020/12/21 14:11:56;;;;;;;5.65;4.13;;;11.10;77.30;;;;;;5035134;28;20255;-80
2020/12/21 14:14:23;;;;;;;11.13;4.90;;;11.10;76.40;;;;;;5036519;28;20209;-80
2020/12/21 14:16:49;;;;;;;6.90;4.32;;;11.10;75.30;;;;;;5034549;28;20209;-80
2020/12/21 14:19:16;;;;;;;6.72;4.18;;;11.10;74.70;;;;;;5033625;28;20234;-80
2020/12/21 14:21:44;;;;;;;6.00;4.40;;;11.10;73.20;;;;;;5035586;28;20213;-80
2020/12/21 14:24:10;;;;;;;5.35;4.35;;;11.10;72.30;;;;;;5034965;28;20207;-79
2020/12/21 14:26:36;;;;;;;6.00;3.50;;;11.20;72.30;;;;;;5034016;28;20212;-83
2020/12/21 14:29:03;;;;;;;6.18;3.40;;;11.20;72.30;;;;;;5035088;28;20234;-79
2020/12/21 14:31:31;;;;;;;9.85;6.10;;;11.10;72.50;;;;;;5035451;28;20593;-80
2020/12/21 14:33:57;;;;;;;6.00;3.83;;;11.00;72.20;;;;;;5035027;28;20224;-81
2020/12/21 14:36:25;;;;;;;5.95;3.95;;;10.90;73.30;;;;;;5032883;28;20208;-82
2020/12/21 14:38:53;;;;;;;6.45;4.43;;;11.00;73.60;;;;;;5032845;28;20244;-82